Terminal Aerodrome Forecast
Issued by NWS St Louis, MO

Home | Current Version | Previous Version | Text Only | Print | Product List | Glossary On
Versions: 1 2 3 4 5 6 7 8 9 10 11 12 13 14 15 16
951
FTUS43 KLSX 070520
TAFCOU
TAF
KCOU 070520Z 0706/0806 21009KT P6SM BKN250
     FM071600 27012KT P6SM BKN100
     FM071900 29017G27KT P6SM SCT050 OVC100
     FM080200 29013KT P6SM BKN050=

USA.gov is the U.S. government's official web portal to all federal, state and local government web resources and services.